sensor_id;sensor_type;location;lat;lon;timestamp;temperature;humidity
14551;DHT22;7362;50.956;4.184;2022-07-18T00:03:19;22.70;73.20
14551;DHT22;7362;50.956;4.184;2022-07-18T00:05:53;22.70;73.80
14551;DHT22;7362;50.956;4.184;2022-07-18T00:08:29;22.70;73.70
14551;DHT22;7362;50.956;4.184;2022-07-18T00:10:59;22.70;73.90
14551;DHT22;7362;50.956;4.184;2022-07-18T00:13:33;22.70;73.70
14551;DHT22;7362;50.956;4.184;2022-07-18T00:16:01;22.70;74.00
14551;DHT22;7362;50.956;4.184;2022-07-18T00:18:27;22.70;73.90
14551;DHT22;7362;50.956;4.184;2022-07-18T00:20:56;22.70;74.00
14551;DHT22;7362;50.956;4.184;2022-07-18T00:23:22;22.70;74.10
14551;DHT22;7362;50.956;4.184;2022-07-18T00:25:48;22.70;73.90
14551;DHT22;7362;50.956;4.184;2022-07-18T00:28:14;22.70;74.10
14551;DHT22;7362;50.956;4.184;2022-07-18T00:30:40;22.70;74.40
14551;DHT22;7362;50.956;4.184;2022-07-18T00:33:09;22.60;74.30
14551;DHT22;7362;50.956;4.184;2022-07-18T00:35:36;22.60;74.50
14551;DHT22;7362;50.956;4.184;2022-07-18T00:38:03;22.60;74.50
14551;DHT22;7362;50.956;4.184;2022-07-18T00:40:32;22.60;74.90
14551;DHT22;7362;50.956;4.184;2022-07-18T00:43:03;22.50;75.20
14551;DHT22;7362;50.956;4.184;2022-07-18T00:45:52;22.40;75.60
14551;DHT22;7362;50.956;4.184;2022-07-18T00:48:21;22.40;76.00
14551;DHT22;7362;50.956;4.184;2022-07-18T00:50:50;22.30;76.70
14551;DHT22;7362;50.956;4.184;2022-07-18T00:53:19;22.30;76.50
14551;DHT22;7362;50.956;4.184;2022-07-18T00:55:48;22.30;76.50
14551;DHT22;7362;50.956;4.184;2022-07-18T00:58:17;22.30;76.60
14551;DHT22;7362;50.956;4.184;2022-07-18T01:00:45;22.30;76.60
14551;DHT22;7362;50.956;4.184;2022-07-18T01:03:33;22.30;76.60
14551;DHT22;7362;50.956;4.184;2022-07-18T01:06:27;22.30;77.20
14551;DHT22;7362;50.956;4.184;2022-07-18T01:09:00;22.30;76.40
14551;DHT22;7362;50.956;4.184;2022-07-18T01:14:48;22.00;79.50
14551;DHT22;7362;50.956;4.184;2022-07-18T01:20:36;21.70;81.40
14551;DHT22;7362;50.956;4.184;2022-07-18T01:23:29;21.70;79.80
14551;DHT22;7362;50.956;4.184;2022-07-18T01:25:59;21.80;79.30
14551;DHT22;7362;50.956;4.184;2022-07-18T01:28:25;21.90;79.20
14551;DHT22;7362;50.956;4.184;2022-07-18T01:30:50;21.90;78.90
14551;DHT22;7362;50.956;4.184;2022-07-18T01:33:17;21.90;79.30
14551;DHT22;7362;50.956;4.184;2022-07-18T01:35:43;21.90;79.70
14551;DHT22;7362;50.956;4.184;2022-07-18T01:38:18;21.80;80.60
14551;DHT22;7362;50.956;4.184;2022-07-18T01:40:45;21.70;81.40
14551;DHT22;7362;50.956;4.184;2022-07-18T01:43:29;21.50;82.80
14551;DHT22;7362;50.956;4.184;2022-07-18T01:49:18;21.30;84.00
14551;DHT22;7362;50.956;4.184;2022-07-18T01:55:10;21.20;84.90
14551;DHT22;7362;50.956;4.184;2022-07-18T01:57:40;21.30;83.70
14551;DHT22;7362;50.956;4.184;2022-07-18T02:00:08;21.40;82.80
14551;DHT22;7362;50.956;4.184;2022-07-18T02:02:37;21.30;82.90
14551;DHT22;7362;50.956;4.184;2022-07-18T02:05:04;21.30;84.20
14551;DHT22;7362;50.956;4.184;2022-07-18T02:07:35;21.30;83.40
14551;DHT22;7362;50.956;4.184;2022-07-18T02:10:05;21.20;83.60
14551;DHT22;7362;50.956;4.184;2022-07-18T02:12:33;21.30;83.60
14551;DHT22;7362;50.956;4.184;2022-07-18T02:15:01;21.40;83.80
14551;DHT22;7362;50.956;4.184;2022-07-18T02:17:32;21.40;84.00
14551;DHT22;7362;50.956;4.184;2022-07-18T02:19:58;21.50;84.00
14551;DHT22;7362;50.956;4.184;2022-07-18T02:22:24;21.50;83.80
14551;DHT22;7362;50.956;4.184;2022-07-18T02:24:51;21.50;83.80
14551;DHT22;7362;50.956;4.184;2022-07-18T02:27:16;21.50;84.00
14551;DHT22;7362;50.956;4.184;2022-07-18T02:29:42;21.50;84.20
14551;DHT22;7362;50.956;4.184;2022-07-18T02:32:08;21.50;84.00
14551;DHT22;7362;50.956;4.184;2022-07-18T02:34:35;21.50;84.50
14551;DHT22;7362;50.956;4.184;2022-07-18T02:37:04;21.50;85.00
14551;DHT22;7362;50.956;4.184;2022-07-18T02:39:30;21.30;85.80
14551;DHT22;7362;50.956;4.184;2022-07-18T02:41:56;21.20;87.00
14551;DHT22;7362;50.956;4.184;2022-07-18T02:44:23;21.00;88.40
14551;DHT22;7362;50.956;4.184;2022-07-18T02:46:54;20.80;89.70
14551;DHT22;7362;50.956;4.184;2022-07-18T02:49:20;20.70;90.10
14551;DHT22;7362;50.956;4.184;2022-07-18T02:52:00;20.60;90.40
14551;DHT22;7362;50.956;4.184;2022-07-18T02:54:46;20.60;90.90
14551;DHT22;7362;50.956;4.184;2022-07-18T02:57:14;20.60;91.10
14551;DHT22;7362;50.956;4.184;2022-07-18T02:59:42;20.60;91.40
14551;DHT22;7362;50.956;4.184;2022-07-18T03:02:08;20.60;91.40
14551;DHT22;7362;50.956;4.184;2022-07-18T03:04:35;20.60;91.40
14551;DHT22;7362;50.956;4.184;2022-07-18T03:07:10;20.50;91.40
14551;DHT22;7362;50.956;4.184;2022-07-18T03:09:37;20.40;92.30
14551;DHT22;7362;50.956;4.184;2022-07-18T03:12:17;20.40;92.30
14551;DHT22;7362;50.956;4.184;2022-07-18T03:14:46;20.40;92.60
14551;DHT22;7362;50.956;4.184;2022-07-18T03:17:12;20.50;91.90
14551;DHT22;7362;50.956;4.184;2022-07-18T03:19:38;20.60;91.40
14551;DHT22;7362;50.956;4.184;2022-07-18T03:22:04;20.70;91.50
14551;DHT22;7362;50.956;4.184;2022-07-18T03:24:33;20.80;91.40
14551;DHT22;7362;50.956;4.184;2022-07-18T03:27:10;20.80;91.50
14551;DHT22;7362;50.956;4.184;2022-07-18T03:29:36;20.80;91.70
14551;DHT22;7362;50.956;4.184;2022-07-18T03:32:02;20.60;92.50
14551;DHT22;7362;50.956;4.184;2022-07-18T03:34:28;20.50;92.80
14551;DHT22;7362;50.956;4.184;2022-07-18T03:36:53;20.40;93.30
14551;DHT22;7362;50.956;4.184;2022-07-18T03:39:19;20.40;93.50
14551;DHT22;7362;50.956;4.184;2022-07-18T03:41:44;20.40;93.40
14551;DHT22;7362;50.956;4.184;2022-07-18T03:44:10;20.40;93.90
14551;DHT22;7362;50.956;4.184;2022-07-18T03:46:36;20.40;93.60
14551;DHT22;7362;50.956;4.184;2022-07-18T03:49:12;20.40;94.50
14551;DHT22;7362;50.956;4.184;2022-07-18T03:51:38;20.40;94.80
14551;DHT22;7362;50.956;4.184;2022-07-18T03:54:03;20.40;94.90
14551;DHT22;7362;50.956;4.184;2022-07-18T03:56:34;20.40;95.10
14551;DHT22;7362;50.956;4.184;2022-07-18T03:59:00;20.20;95.40
14551;DHT22;7362;50.956;4.184;2022-07-18T04:01:25;20.10;95.00
14551;DHT22;7362;50.956;4.184;2022-07-18T04:03:51;20.00;95.60
14551;DHT22;7362;50.956;4.184;2022-07-18T04:06:17;19.90;95.70
14551;DHT22;7362;50.956;4.184;2022-07-18T04:08:42;20.00;96.10
14551;DHT22;7362;50.956;4.184;2022-07-18T04:11:08;20.10;95.60
14551;DHT22;7362;50.956;4.184;2022-07-18T04:13:33;20.20;95.60
14551;DHT22;7362;50.956;4.184;2022-07-18T04:15:59;20.40;94.70
14551;DHT22;7362;50.956;4.184;2022-07-18T04:18:27;20.50;94.20
14551;DHT22;7362;50.956;4.184;2022-07-18T04:20:53;20.60;95.10
14551;DHT22;7362;50.956;4.184;2022-07-18T04:23:19;20.50;95.10
14551;DHT22;7362;50.956;4.184;2022-07-18T04:25:44;20.50;95.30
14551;DHT22;7362;50.956;4.184;2022-07-18T04:28:14;20.50;95.70
14551;DHT22;7362;50.956;4.184;2022-07-18T04:30:41;20.50;95.80
14551;DHT22;7362;50.956;4.184;2022-07-18T04:33:09;20.60;95.80
14551;DHT22;7362;50.956;4.184;2022-07-18T04:35:48;20.60;95.70
14551;DHT22;7362;50.956;4.184;2022-07-18T04:38:14;20.70;95.80
14551;DHT22;7362;50.956;4.184;2022-07-18T04:40:50;20.80;95.60
14551;DHT22;7362;50.956;4.184;2022-07-18T04:43:16;20.70;95.10
14551;DHT22;7362;50.956;4.184;2022-07-18T04:45:41;20.70;94.70
14551;DHT22;7362;50.956;4.184;2022-07-18T04:48:07;20.60;94.30
14551;DHT22;7362;50.956;4.184;2022-07-18T04:50:33;20.60;93.90
14551;DHT22;7362;50.956;4.184;2022-07-18T04:52:59;20.60;93.90
14551;DHT22;7362;50.956;4.184;2022-07-18T04:55:25;20.80;93.90
14551;DHT22;7362;50.956;4.184;2022-07-18T04:57:52;21.00;93.30
14551;DHT22;7362;50.956;4.184;2022-07-18T05:00:24;21.30;92.80
14551;DHT22;7362;50.956;4.184;2022-07-18T05:02:51;21.60;92.50
14551;DHT22;7362;50.956;4.184;2022-07-18T05:05:19;22.00;92.10
14551;DHT22;7362;50.956;4.184;2022-07-18T05:07:47;22.30;91.90
14551;DHT22;7362;50.956;4.184;2022-07-18T05:10:14;22.70;91.60
14551;DHT22;7362;50.956;4.184;2022-07-18T05:12:45;23.20;91.00
14551;DHT22;7362;50.956;4.184;2022-07-18T05:15:15;23.80;90.80
14551;DHT22;7362;50.956;4.184;2022-07-18T05:17:43;24.30;88.20
14551;DHT22;7362;50.956;4.184;2022-07-18T05:20:15;24.60;86.20
14551;DHT22;7362;50.956;4.184;2022-07-18T05:22:56;24.60;84.20
14551;DHT22;7362;50.956;4.184;2022-07-18T05:25:22;24.60;83.80
14551;DHT22;7362;50.956;4.184;2022-07-18T05:27:48;24.70;83.40
14551;DHT22;7362;50.956;4.184;2022-07-18T05:30:19;25.10;83.20
14551;DHT22;7362;50.956;4.184;2022-07-18T05:32:47;25.20;81.60
14551;DHT22;7362;50.956;4.184;2022-07-18T05:35:13;25.60;80.70
14551;DHT22;7362;50.956;4.184;2022-07-18T05:37:39;25.70;80.30
14551;DHT22;7362;50.956;4.184;2022-07-18T05:40:09;26.00;79.70
14551;DHT22;7362;50.956;4.184;2022-07-18T05:42:35;26.30;78.80
14551;DHT22;7362;50.956;4.184;2022-07-18T05:45:05;26.90;77.60
14551;DHT22;7362;50.956;4.184;2022-07-18T05:47:32;27.80;77.20
14551;DHT22;7362;50.956;4.184;2022-07-18T05:49:57;28.60;75.50
14551;DHT22;7362;50.956;4.184;2022-07-18T05:52:23;29.10;74.70
14551;DHT22;7362;50.956;4.184;2022-07-18T05:54:50;29.30;73.90
14551;DHT22;7362;50.956;4.184;2022-07-18T05:57:16;29.60;73.00
14551;DHT22;7362;50.956;4.184;2022-07-18T05:59:43;29.60;72.90
14551;DHT22;7362;50.956;4.184;2022-07-18T06:02:08;30.20;72.40
14551;DHT22;7362;50.956;4.184;2022-07-18T06:04:41;30.20;71.80
14551;DHT22;7362;50.956;4.184;2022-07-18T06:07:07;30.80;70.90
14551;DHT22;7362;50.956;4.184;2022-07-18T06:09:33;31.30;69.70
14551;DHT22;7362;50.956;4.184;2022-07-18T06:12:07;31.20;70.00
14551;DHT22;7362;50.956;4.184;2022-07-18T06:14:34;31.50;69.00
14551;DHT22;7362;50.956;4.184;2022-07-18T06:16:59;31.60;68.80
14551;DHT22;7362;50.956;4.184;2022-07-18T06:19:25;32.40;67.10
14551;DHT22;7362;50.956;4.184;2022-07-18T06:21:51;32.20;66.70
14551;DHT22;7362;50.956;4.184;2022-07-18T06:24:17;32.70;65.60
14551;DHT22;7362;50.956;4.184;2022-07-18T06:26:42;33.10;65.90
14551;DHT22;7362;50.956;4.184;2022-07-18T06:29:08;33.00;65.20
14551;DHT22;7362;50.956;4.184;2022-07-18T06:31:34;33.50;64.20
14551;DHT22;7362;50.956;4.184;2022-07-18T06:33:59;34.60;62.70
14551;DHT22;7362;50.956;4.184;2022-07-18T06:36:25;35.00;60.70
14551;DHT22;7362;50.956;4.184;2022-07-18T06:38:51;36.10;58.80
14551;DHT22;7362;50.956;4.184;2022-07-18T06:41:19;36.90;56.80
14551;DHT22;7362;50.956;4.184;2022-07-18T06:43:46;37.40;55.70
14551;DHT22;7362;50.956;4.184;2022-07-18T06:46:12;36.80;54.40
14551;DHT22;7362;50.956;4.184;2022-07-18T06:48:39;37.00;53.80
14551;DHT22;7362;50.956;4.184;2022-07-18T06:51:07;36.60;54.70
14551;DHT22;7362;50.956;4.184;2022-07-18T06:53:39;36.70;53.00
14551;DHT22;7362;50.956;4.184;2022-07-18T06:56:05;37.30;51.90
14551;DHT22;7362;50.956;4.184;2022-07-18T06:58:31;36.90;52.10
14551;DHT22;7362;50.956;4.184;2022-07-18T07:01:12;37.90;51.00
14551;DHT22;7362;50.956;4.184;2022-07-18T07:04:04;38.50;50.60
14551;DHT22;7362;50.956;4.184;2022-07-18T07:06:47;38.00;49.80
14551;DHT22;7362;50.956;4.184;2022-07-18T07:09:30;36.80;50.60
14551;DHT22;7362;50.956;4.184;2022-07-18T07:18:59;36.80;50.10
14551;DHT22;7362;50.956;4.184;2022-07-18T07:21:55;38.40;49.50
14551;DHT22;7362;50.956;4.184;2022-07-18T07:27:37;39.80;47.20
14551;DHT22;7362;50.956;4.184;2022-07-18T07:30:09;41.00;46.00
14551;DHT22;7362;50.956;4.184;2022-07-18T07:33:07;41.00;45.10
14551;DHT22;7362;50.956;4.184;2022-07-18T07:35:57;39.70;45.70
14551;DHT22;7362;50.956;4.184;2022-07-18T07:38:23;40.10;45.90
14551;DHT22;7362;50.956;4.184;2022-07-18T07:41:14;39.10;46.40
14551;DHT22;7362;50.956;4.184;2022-07-18T07:43:44;40.20;46.00
14551;DHT22;7362;50.956;4.184;2022-07-18T07:46:11;40.90;45.70
14551;DHT22;7362;50.956;4.184;2022-07-18T07:48:38;40.30;45.30
14551;DHT22;7362;50.956;4.184;2022-07-18T07:51:06;40.30;45.30
14551;DHT22;7362;50.956;4.184;2022-07-18T07:53:35;39.80;44.60
14551;DHT22;7362;50.956;4.184;2022-07-18T07:56:04;40.30;45.10
14551;DHT22;7362;50.956;4.184;2022-07-18T07:58:30;40.00;44.70
14551;DHT22;7362;50.956;4.184;2022-07-18T08:00:56;40.30;45.00
14551;DHT22;7362;50.956;4.184;2022-07-18T08:03:23;40.40;44.90
14551;DHT22;7362;50.956;4.184;2022-07-18T08:05:56;41.30;44.30
14551;DHT22;7362;50.956;4.184;2022-07-18T08:08:22;42.70;43.30
14551;DHT22;7362;50.956;4.184;2022-07-18T08:10:52;42.90;42.60
14551;DHT22;7362;50.956;4.184;2022-07-18T08:13:22;41.70;43.00
14551;DHT22;7362;50.956;4.184;2022-07-18T08:15:54;42.70;43.00
14551;DHT22;7362;50.956;4.184;2022-07-18T08:18:20;42.90;42.20
14551;DHT22;7362;50.956;4.184;2022-07-18T08:20:46;42.60;42.20
14551;DHT22;7362;50.956;4.184;2022-07-18T08:23:12;42.10;42.90
14551;DHT22;7362;50.956;4.184;2022-07-18T08:25:40;41.90;42.70
14551;DHT22;7362;50.956;4.184;2022-07-18T08:28:07;42.20;42.20
14551;DHT22;7362;50.956;4.184;2022-07-18T08:30:36;42.50;41.80
14551;DHT22;7362;50.956;4.184;2022-07-18T08:33:07;41.50;42.20
14551;DHT22;7362;50.956;4.184;2022-07-18T08:35:33;41.50;42.40
14551;DHT22;7362;50.956;4.184;2022-07-18T08:38:00;40.20;42.40
14551;DHT22;7362;50.956;4.184;2022-07-18T08:40:49;40.60;43.40
14551;DHT22;7362;50.956;4.184;2022-07-18T08:43:20;40.90;42.80
14551;DHT22;7362;50.956;4.184;2022-07-18T08:46:09;39.10;43.50
14551;DHT22;7362;50.956;4.184;2022-07-18T08:48:57;39.40;44.00
14551;DHT22;7362;50.956;4.184;2022-07-18T08:51:26;40.40;43.60
14551;DHT22;7362;50.956;4.184;2022-07-18T08:53:53;40.30;42.40
14551;DHT22;7362;50.956;4.184;2022-07-18T08:56:19;39.70;43.40
14551;DHT22;7362;50.956;4.184;2022-07-18T08:58:45;38.70;44.00
14551;DHT22;7362;50.956;4.184;2022-07-18T09:01:11;38.90;44.20
14551;DHT22;7362;50.956;4.184;2022-07-18T09:03:36;38.90;44.10
14551;DHT22;7362;50.956;4.184;2022-07-18T09:06:04;39.30;43.30
14551;DHT22;7362;50.956;4.184;2022-07-18T09:08:30;39.90;43.10
14551;DHT22;7362;50.956;4.184;2022-07-18T09:10:58;40.80;42.80
14551;DHT22;7362;50.956;4.184;2022-07-18T09:13:38;40.60;42.60
14551;DHT22;7362;50.956;4.184;2022-07-18T09:16:16;41.90;42.30
14551;DHT22;7362;50.956;4.184;2022-07-18T09:18:44;40.30;43.30
14551;DHT22;7362;50.956;4.184;2022-07-18T09:21:50;40.20;44.00
14551;DHT22;7362;50.956;4.184;2022-07-18T09:24:23;39.80;43.30
14551;DHT22;7362;50.956;4.184;2022-07-18T09:26:49;41.00;43.20
14551;DHT22;7362;50.956;4.184;2022-07-18T09:29:18;41.40;41.90
14551;DHT22;7362;50.956;4.184;2022-07-18T09:31:52;41.30;42.40
14551;DHT22;7362;50.956;4.184;2022-07-18T09:34:38;43.40;41.10
14551;DHT22;7362;50.956;4.184;2022-07-18T09:37:19;43.20;40.50
14551;DHT22;7362;50.956;4.184;2022-07-18T09:40:28;41.20;40.80
14551;DHT22;7362;50.956;4.184;2022-07-18T09:42:55;42.30;40.80
14551;DHT22;7362;50.956;4.184;2022-07-18T09:45:25;43.70;40.10
14551;DHT22;7362;50.956;4.184;2022-07-18T09:47:57;45.00;39.40
14551;DHT22;7362;50.956;4.184;2022-07-18T09:50:39;45.90;38.50
14551;DHT22;7362;50.956;4.184;2022-07-18T09:53:15;44.40;38.80
14551;DHT22;7362;50.956;4.184;2022-07-18T09:55:43;43.70;38.70
14551;DHT22;7362;50.956;4.184;2022-07-18T09:58:26;46.60;38.20
14551;DHT22;7362;50.956;4.184;2022-07-18T10:00:56;46.30;37.50
14551;DHT22;7362;50.956;4.184;2022-07-18T10:03:23;45.10;38.50
14551;DHT22;7362;50.956;4.184;2022-07-18T10:08:31;45.40;38.20
14551;DHT22;7362;50.956;4.184;2022-07-18T10:11:09;45.40;37.70
14551;DHT22;7362;50.956;4.184;2022-07-18T10:13:37;45.60;37.80
14551;DHT22;7362;50.956;4.184;2022-07-18T10:16:08;46.70;37.10
14551;DHT22;7362;50.956;4.184;2022-07-18T10:19:08;48.60;34.50
14551;DHT22;7362;50.956;4.184;2022-07-18T10:22:00;49.40;34.10
14551;DHT22;7362;50.956;4.184;2022-07-18T10:24:28;47.00;35.30
14551;DHT22;7362;50.956;4.184;2022-07-18T10:27:25;45.10;36.50
14551;DHT22;7362;50.956;4.184;2022-07-18T10:43:52;48.20;33.40
14551;DHT22;7362;50.956;4.184;2022-07-18T10:46:20;47.20;32.90
14551;DHT22;7362;50.956;4.184;2022-07-18T10:49:09;46.70;33.10
14551;DHT22;7362;50.956;4.184;2022-07-18T10:51:39;46.40;33.80
14551;DHT22;7362;50.956;4.184;2022-07-18T10:54:08;44.20;33.90
14551;DHT22;7362;50.956;4.184;2022-07-18T10:59:23;44.80;34.30
14551;DHT22;7362;50.956;4.184;2022-07-18T11:02:31;46.30;33.40
14551;DHT22;7362;50.956;4.184;2022-07-18T11:04:57;48.30;32.20
14551;DHT22;7362;50.956;4.184;2022-07-18T11:07:26;47.50;32.00
14551;DHT22;7362;50.956;4.184;2022-07-18T11:10:00;47.00;32.50
14551;DHT22;7362;50.956;4.184;2022-07-18T11:12:36;47.40;32.40
14551;DHT22;7362;50.956;4.184;2022-07-18T11:15:08;47.80;32.10
14551;DHT22;7362;50.956;4.184;2022-07-18T11:17:56;46.70;32.00
14551;DHT22;7362;50.956;4.184;2022-07-18T11:20:36;46.70;32.20
14551;DHT22;7362;50.956;4.184;2022-07-18T11:23:19;46.10;32.60
14551;DHT22;7362;50.956;4.184;2022-07-18T11:26:23;48.30;32.00
14551;DHT22;7362;50.956;4.184;2022-07-18T11:29:10;48.60;31.50
14551;DHT22;7362;50.956;4.184;2022-07-18T11:31:56;47.90;31.40
14551;DHT22;7362;50.956;4.184;2022-07-18T11:34:45;47.80;31.60
14551;DHT22;7362;50.956;4.184;2022-07-18T11:37:15;46.20;32.50
14551;DHT22;7362;50.956;4.184;2022-07-18T11:39:42;46.50;32.50
14551;DHT22;7362;50.956;4.184;2022-07-18T11:42:09;46.10;32.00
14551;DHT22;7362;50.956;4.184;2022-07-18T11:44:41;45.90;32.50
14551;DHT22;7362;50.956;4.184;2022-07-18T11:47:28;46.70;32.40
14551;DHT22;7362;50.956;4.184;2022-07-18T11:49:58;46.70;31.30
14551;DHT22;7362;50.956;4.184;2022-07-18T11:52:24;47.30;31.70
14551;DHT22;7362;50.956;4.184;2022-07-18T11:54:53;47.90;31.20
14551;DHT22;7362;50.956;4.184;2022-07-18T11:57:32;48.60;30.70
14551;DHT22;7362;50.956;4.184;2022-07-18T12:00:23;48.90;30.30
14551;DHT22;7362;50.956;4.184;2022-07-18T12:03:14;46.20;31.00
14551;DHT22;7362;50.956;4.184;2022-07-18T12:05:48;45.50;32.00
14551;DHT22;7362;50.956;4.184;2022-07-18T12:11:27;46.40;31.10
14551;DHT22;7362;50.956;4.184;2022-07-18T12:16:56;44.30;31.50
14551;DHT22;7362;50.956;4.184;2022-07-18T12:19:39;44.60;31.70
14551;DHT22;7362;50.956;4.184;2022-07-18T12:22:10;44.70;31.40
14551;DHT22;7362;50.956;4.184;2022-07-18T12:25:03;45.40;31.50
14551;DHT22;7362;50.956;4.184;2022-07-18T12:27:42;46.00;30.20
14551;DHT22;7362;50.956;4.184;2022-07-18T12:30:29;43.90;31.00
14551;DHT22;7362;50.956;4.184;2022-07-18T12:32:58;44.10;31.20
14551;DHT22;7362;50.956;4.184;2022-07-18T12:35:55;44.80;30.90
14551;DHT22;7362;50.956;4.184;2022-07-18T12:38:31;44.20;31.20
14551;DHT22;7362;50.956;4.184;2022-07-18T12:41:06;43.60;31.60
14551;DHT22;7362;50.956;4.184;2022-07-18T12:43:51;42.30;31.50
14551;DHT22;7362;50.956;4.184;2022-07-18T12:46:17;42.70;31.30
14551;DHT22;7362;50.956;4.184;2022-07-18T12:48:46;42.00;32.40
14551;DHT22;7362;50.956;4.184;2022-07-18T12:51:14;41.90;32.40
14551;DHT22;7362;50.956;4.184;2022-07-18T12:53:46;42.60;32.70
14551;DHT22;7362;50.956;4.184;2022-07-18T12:56:12;42.80;31.60
14551;DHT22;7362;50.956;4.184;2022-07-18T12:58:38;42.90;31.30
14551;DHT22;7362;50.956;4.184;2022-07-18T13:01:04;43.30;31.20
14551;DHT22;7362;50.956;4.184;2022-07-18T13:03:37;43.20;31.30
14551;DHT22;7362;50.956;4.184;2022-07-18T13:06:08;42.40;31.60
14551;DHT22;7362;50.956;4.184;2022-07-18T13:09:07;42.60;32.00
14551;DHT22;7362;50.956;4.184;2022-07-18T13:11:34;43.40;32.00
14551;DHT22;7362;50.956;4.184;2022-07-18T13:14:03;42.70;32.00
14551;DHT22;7362;50.956;4.184;2022-07-18T13:16:49;42.00;32.00
14551;DHT22;7362;50.956;4.184;2022-07-18T13:19:16;42.00;32.50
14551;DHT22;7362;50.956;4.184;2022-07-18T13:21:48;42.00;32.60
14551;DHT22;7362;50.956;4.184;2022-07-18T13:24:16;42.30;32.80
14551;DHT22;7362;50.956;4.184;2022-07-18T13:26:45;41.70;32.80
14551;DHT22;7362;50.956;4.184;2022-07-18T13:29:14;42.40;32.40
14551;DHT22;7362;50.956;4.184;2022-07-18T13:31:39;43.10;31.20
14551;DHT22;7362;50.956;4.184;2022-07-18T13:34:05;42.00;31.80
14551;DHT22;7362;50.956;4.184;2022-07-18T13:36:32;41.00;32.40
14551;DHT22;7362;50.956;4.184;2022-07-18T13:38:59;40.50;32.70
14551;DHT22;7362;50.956;4.184;2022-07-18T13:41:29;40.30;32.00
14551;DHT22;7362;50.956;4.184;2022-07-18T13:43:57;40.20;33.10
14551;DHT22;7362;50.956;4.184;2022-07-18T13:46:24;40.00;33.00
14551;DHT22;7362;50.956;4.184;2022-07-18T13:48:52;39.60;33.90
14551;DHT22;7362;50.956;4.184;2022-07-18T13:51:19;39.50;33.70
14551;DHT22;7362;50.956;4.184;2022-07-18T13:53:45;40.10;33.80
14551;DHT22;7362;50.956;4.184;2022-07-18T13:56:11;39.60;33.90
14551;DHT22;7362;50.956;4.184;2022-07-18T13:58:37;39.70;34.30
14551;DHT22;7362;50.956;4.184;2022-07-18T14:01:05;39.70;34.30
14551;DHT22;7362;50.956;4.184;2022-07-18T14:03:31;39.50;34.10
14551;DHT22;7362;50.956;4.184;2022-07-18T14:05:57;39.80;34.00
14551;DHT22;7362;50.956;4.184;2022-07-18T14:08:26;39.90;33.70
14551;DHT22;7362;50.956;4.184;2022-07-18T14:10:54;39.30;34.60
14551;DHT22;7362;50.956;4.184;2022-07-18T14:13:19;38.60;34.50
14551;DHT22;7362;50.956;4.184;2022-07-18T14:15:46;38.40;35.10
14551;DHT22;7362;50.956;4.184;2022-07-18T14:18:14;38.00;35.00
14551;DHT22;7362;50.956;4.184;2022-07-18T14:20:41;37.60;35.00
14551;DHT22;7362;50.956;4.184;2022-07-18T14:23:07;37.00;34.60
14551;DHT22;7362;50.956;4.184;2022-07-18T14:25:35;36.70;35.20
14551;DHT22;7362;50.956;4.184;2022-07-18T14:28:02;36.90;35.50
14551;DHT22;7362;50.956;4.184;2022-07-18T14:30:28;36.90;36.90
14551;DHT22;7362;50.956;4.184;2022-07-18T14:32:54;37.00;37.20
14551;DHT22;7362;50.956;4.184;2022-07-18T14:35:20;36.90;37.40
14551;DHT22;7362;50.956;4.184;2022-07-18T14:37:45;36.60;37.20
14551;DHT22;7362;50.956;4.184;2022-07-18T14:40:16;36.30;37.70
14551;DHT22;7362;50.956;4.184;2022-07-18T14:42:41;36.30;37.90
14551;DHT22;7362;50.956;4.184;2022-07-18T14:45:09;36.50;38.10
14551;DHT22;7362;50.956;4.184;2022-07-18T14:47:35;36.50;37.70
14551;DHT22;7362;50.956;4.184;2022-07-18T14:50:06;36.40;37.90
14551;DHT22;7362;50.956;4.184;2022-07-18T14:52:33;36.20;38.00
14551;DHT22;7362;50.956;4.184;2022-07-18T14:55:04;36.20;38.10
14551;DHT22;7362;50.956;4.184;2022-07-18T14:57:31;36.20;37.80
14551;DHT22;7362;50.956;4.184;2022-07-18T14:59:57;36.20;37.50
14551;DHT22;7362;50.956;4.184;2022-07-18T15:02:23;36.20;37.80
14551;DHT22;7362;50.956;4.184;2022-07-18T15:04:49;36.20;38.40
14551;DHT22;7362;50.956;4.184;2022-07-18T15:07:16;36.20;38.00
14551;DHT22;7362;50.956;4.184;2022-07-18T15:09:42;36.20;38.00
14551;DHT22;7362;50.956;4.184;2022-07-18T15:12:08;36.20;37.40
14551;DHT22;7362;50.956;4.184;2022-07-18T15:14:36;36.20;37.10
14551;DHT22;7362;50.956;4.184;2022-07-18T15:17:02;36.00;37.20
14551;DHT22;7362;50.956;4.184;2022-07-18T15:19:27;35.90;37.70
14551;DHT22;7362;50.956;4.184;2022-07-18T15:21:54;35.90;37.80
14551;DHT22;7362;50.956;4.184;2022-07-18T15:24:40;35.70;37.10
14551;DHT22;7362;50.956;4.184;2022-07-18T15:27:09;35.70;37.60
14551;DHT22;7362;50.956;4.184;2022-07-18T15:29:36;35.80;38.10
14551;DHT22;7362;50.956;4.184;2022-07-18T15:32:01;35.80;37.50
14551;DHT22;7362;50.956;4.184;2022-07-18T15:34:36;35.90;37.00
14551;DHT22;7362;50.956;4.184;2022-07-18T15:37:09;36.10;37.00
14551;DHT22;7362;50.956;4.184;2022-07-18T15:39:42;36.10;37.00
14551;DHT22;7362;50.956;4.184;2022-07-18T15:42:08;36.00;37.50
14551;DHT22;7362;50.956;4.184;2022-07-18T15:44:35;36.00;37.80
14551;DHT22;7362;50.956;4.184;2022-07-18T15:47:05;36.00;37.70
14551;DHT22;7362;50.956;4.184;2022-07-18T15:49:51;36.00;37.60
14551;DHT22;7362;50.956;4.184;2022-07-18T15:52:20;35.80;37.50
14551;DHT22;7362;50.956;4.184;2022-07-18T15:54:47;35.80;38.10
14551;DHT22;7362;50.956;4.184;2022-07-18T15:57:16;35.80;37.50
14551;DHT22;7362;50.956;4.184;2022-07-18T15:59:42;35.90;38.30
14551;DHT22;7362;50.956;4.184;2022-07-18T16:02:08;35.90;38.40
14551;DHT22;7362;50.956;4.184;2022-07-18T16:04:34;35.90;37.60
14551;DHT22;7362;50.956;4.184;2022-07-18T16:07:00;36.00;38.10
14551;DHT22;7362;50.956;4.184;2022-07-18T16:09:25;36.00;37.30
14551;DHT22;7362;50.956;4.184;2022-07-18T16:12:48;36.10;37.50
14551;DHT22;7362;50.956;4.184;2022-07-18T16:16:12;36.20;37.80
14551;DHT22;7362;50.956;4.184;2022-07-18T16:22:17;36.40;37.40
14551;DHT22;7362;50.956;4.184;2022-07-18T16:24:43;36.60;37.70
14551;DHT22;7362;50.956;4.184;2022-07-18T16:27:23;36.60;37.50
14551;DHT22;7362;50.956;4.184;2022-07-18T16:29:52;36.70;37.80
14551;DHT22;7362;50.956;4.184;2022-07-18T16:32:18;36.20;37.60
14551;DHT22;7362;50.956;4.184;2022-07-18T16:34:46;36.10;37.80
14551;DHT22;7362;50.956;4.184;2022-07-18T16:37:13;36.00;38.30
14551;DHT22;7362;50.956;4.184;2022-07-18T16:39:40;35.90;38.20
14551;DHT22;7362;50.956;4.184;2022-07-18T16:42:09;35.80;37.90
14551;DHT22;7362;50.956;4.184;2022-07-18T16:44:58;35.90;37.70
14551;DHT22;7362;50.956;4.184;2022-07-18T16:47:27;36.00;37.80
14551;DHT22;7362;50.956;4.184;2022-07-18T16:49:55;36.10;38.20
14551;DHT22;7362;50.956;4.184;2022-07-18T16:52:21;36.20;37.90
14551;DHT22;7362;50.956;4.184;2022-07-18T16:54:50;36.30;38.20
14551;DHT22;7362;50.956;4.184;2022-07-18T16:57:18;36.40;38.00
14551;DHT22;7362;50.956;4.184;2022-07-18T16:59:47;36.40;37.80
14551;DHT22;7362;50.956;4.184;2022-07-18T17:02:30;36.30;37.50
14551;DHT22;7362;50.956;4.184;2022-07-18T17:04:56;36.20;39.90